Lynndyl, UT

1:33 PM MDT on September 01, 2015 (GMT -0600)
Oak City | | Change Station
CLOSE
Current Station
Personal Weather Station
Location: Oak City, UT
Elevation: 5066 ft
Nearby Weather Stations

Elev 5066 ft 39.38 °N, 112.34 °W | Updated 25 seconds ago

Partly Cloudy
Partly Cloudy
88.2 °F
Feels Like 85 °F
N
4.0
Wind Variable Wind from South
Gusts 11.0 mph

Today
High -- | Low -- °F
--% Chance of Precip.
Yesterday
High -- | Low -- °F
Precip. -- in
6:57 AM 8:00 PM
Waning Gibbous, 87% visible
Pressure 30.04 in
Visibility 15.0 miles
Clouds Scattered Clouds 10000 ft
Heat Index 85 °F
Dew Point 41 °F
Humidity 19%
Rainfall 0.00 in
Snow Depth Not available.
UV 8 out of 12
Pollen 8.90 out of 12
Air Quality Not available.
Flu Activity Not available.
METAR KPVU 011847Z 00000KT 15SM SCT100 29/08 A3004
Pressure 30.04 in
Visibility 15.0 miles
Clouds Scattered Clouds 10000 ft
Heat Index 85 °F
Dew Point 41 °F
Humidity 19%
Rainfall 0.00 in
Snow Depth Not available.
UV 8 out of 12
Pollen 8.90 out of 12
Air Quality Not available.
Flu Activity Not available.
METAR KPVU 011847Z 00000KT 15SM SCT100 29/08 A3004

10-Day Weather Forecast

×

Almanac

Astronomy

Sep. 01, 2015 Rise Set
Actual Time
Civil Twilight
Nautical Twilight
Astronomical Twilight
Moon
Length of Visible Light
Length of Day
Tomorrow will be .
, % of the Moon is Illuminated

Today's Extremes

State Highs State Lows

Community

WunderPhotos

Upload Photos

1,851,597 photos uploaded!

WunderBlogs® & News

Nearby

Air Quality

  Air Quality AQ Index Pollutant
Not available.

Snow Depth

Station Depth Elevation

Earthquake Activity

City Distance Mag. Time & Date
Minimum magnitude displayed is 2.5.

Coastal Water Temperatures

Place Temperature

Stations

Nearby Weather Stations

Station Location Temp. Windchill Dew Point Humidity Wind Precip. Elev Updated Type